sensor_id;sensor_type;location;lat;lon;timestamp;temperature;humidity
13992;DHT22;7070;53.586;9.692;2022-11-15T00:00:59;7.00;87.20
13992;DHT22;7070;53.586;9.692;2022-11-15T00:03:27;7.00;87.20
13992;DHT22;7070;53.586;9.692;2022-11-15T00:05:54;7.00;87.20
13992;DHT22;7070;53.586;9.692;2022-11-15T00:08:22;7.10;87.40
13992;DHT22;7070;53.586;9.692;2022-11-15T00:10:55;7.00;87.30
13992;DHT22;7070;53.586;9.692;2022-11-15T00:13:22;7.00;87.40
13992;DHT22;7070;53.586;9.692;2022-11-15T00:15:50;7.00;87.20
13992;DHT22;7070;53.586;9.692;2022-11-15T00:18:17;6.90;87.20
13992;DHT22;7070;53.586;9.692;2022-11-15T00:20:44;7.00;87.30
13992;DHT22;7070;53.586;9.692;2022-11-15T00:23:11;6.90;87.40
13992;DHT22;7070;53.586;9.692;2022-11-15T00:25:39;6.90;87.80
13992;DHT22;7070;53.586;9.692;2022-11-15T00:28:06;6.90;88.90
13992;DHT22;7070;53.586;9.692;2022-11-15T00:30:33;7.10;88.50
13992;DHT22;7070;53.586;9.692;2022-11-15T00:33:04;7.10;88.70
13992;DHT22;7070;53.586;9.692;2022-11-15T00:35:31;7.20;88.80
13992;DHT22;7070;53.586;9.692;2022-11-15T00:37:59;7.30;88.90
13992;DHT22;7070;53.586;9.692;2022-11-15T00:40:26;7.40;88.90
13992;DHT22;7070;53.586;9.692;2022-11-15T00:42:54;7.50;88.90
13992;DHT22;7070;53.586;9.692;2022-11-15T00:45:22;7.60;88.90
13992;DHT22;7070;53.586;9.692;2022-11-15T00:47:49;7.70;88.80
13992;DHT22;7070;53.586;9.692;2022-11-15T00:50:16;7.70;88.80
13992;DHT22;7070;53.586;9.692;2022-11-15T00:52:44;7.70;88.70
13992;DHT22;7070;53.586;9.692;2022-11-15T00:55:13;7.80;88.70
13992;DHT22;7070;53.586;9.692;2022-11-15T00:57:41;7.90;88.60
13992;DHT22;7070;53.586;9.692;2022-11-15T01:00:10;7.90;88.60
13992;DHT22;7070;53.586;9.692;2022-11-15T01:02:37;8.00;88.60
13992;DHT22;7070;53.586;9.692;2022-11-15T01:05:05;8.00;88.40
13992;DHT22;7070;53.586;9.692;2022-11-15T01:07:32;8.10;88.30
13992;DHT22;7070;53.586;9.692;2022-11-15T01:09:59;8.10;87.90
13992;DHT22;7070;53.586;9.692;2022-11-15T01:12:25;8.10;87.60
13992;DHT22;7070;53.586;9.692;2022-11-15T01:14:52;8.00;87.10
13992;DHT22;7070;53.586;9.692;2022-11-15T01:17:21;8.00;86.90
13992;DHT22;7070;53.586;9.692;2022-11-15T01:19:48;7.90;86.50
13992;DHT22;7070;53.586;9.692;2022-11-15T01:22:15;7.80;86.40
13992;DHT22;7070;53.586;9.692;2022-11-15T01:24:42;7.70;86.20
13992;DHT22;7070;53.586;9.692;2022-11-15T01:27:09;8.80;87.20
13992;DHT22;7070;53.586;9.692;2022-11-15T01:29:36;7.50;86.00
13992;DHT22;7070;53.586;9.692;2022-11-15T01:32:03;7.50;86.00
13992;DHT22;7070;53.586;9.692;2022-11-15T01:34:31;7.30;85.80
13992;DHT22;7070;53.586;9.692;2022-11-15T01:36:58;7.30;86.00
13992;DHT22;7070;53.586;9.692;2022-11-15T01:39:25;7.20;86.00
13992;DHT22;7070;53.586;9.692;2022-11-15T01:41:52;7.10;86.10
13992;DHT22;7070;53.586;9.692;2022-11-15T01:44:39;7.10;86.20
13992;DHT22;7070;53.586;9.692;2022-11-15T01:47:09;7.00;86.20
13992;DHT22;7070;53.586;9.692;2022-11-15T01:49:45;6.90;86.30
13992;DHT22;7070;53.586;9.692;2022-11-15T01:52:17;6.90;86.30
13992;DHT22;7070;53.586;9.692;2022-11-15T01:54:46;6.80;86.30
13992;DHT22;7070;53.586;9.692;2022-11-15T01:57:13;6.80;86.30
13992;DHT22;7070;53.586;9.692;2022-11-15T01:59:42;6.80;86.40
13992;DHT22;7070;53.586;9.692;2022-11-15T02:02:10;6.80;86.40
13992;DHT22;7070;53.586;9.692;2022-11-15T02:04:43;6.70;86.40
13992;DHT22;7070;53.586;9.692;2022-11-15T02:07:12;6.70;86.50
13992;DHT22;7070;53.586;9.692;2022-11-15T02:09:40;6.60;86.50
13992;DHT22;7070;53.586;9.692;2022-11-15T02:12:08;6.60;86.60
13992;DHT22;7070;53.586;9.692;2022-11-15T02:14:37;6.60;86.60
13992;DHT22;7070;53.586;9.692;2022-11-15T02:17:17;6.60;86.60
13992;DHT22;7070;53.586;9.692;2022-11-15T02:20:39;6.60;86.60
13992;DHT22;7070;53.586;9.692;2022-11-15T02:23:50;6.50;86.70
13992;DHT22;7070;53.586;9.692;2022-11-15T02:26:45;6.50;86.80
13992;DHT22;7070;53.586;9.692;2022-11-15T02:29:24;6.40;86.50
13992;DHT22;7070;53.586;9.692;2022-11-15T02:31:59;6.50;86.60
13992;DHT22;7070;53.586;9.692;2022-11-15T02:34:35;6.40;86.60
13992;DHT22;7070;53.586;9.692;2022-11-15T02:37:13;6.40;86.70
13992;DHT22;7070;53.586;9.692;2022-11-15T02:39:49;6.40;86.70
13992;DHT22;7070;53.586;9.692;2022-11-15T02:42:20;6.40;87.40
13992;DHT22;7070;53.586;9.692;2022-11-15T02:45:07;6.30;86.60
13992;DHT22;7070;53.586;9.692;2022-11-15T02:47:41;6.30;86.50
13992;DHT22;7070;53.586;9.692;2022-11-15T02:50:10;6.30;86.40
13992;DHT22;7070;53.586;9.692;2022-11-15T02:52:38;6.20;86.40
13992;DHT22;7070;53.586;9.692;2022-11-15T02:57:59;6.20;86.60
13992;DHT22;7070;53.586;9.692;2022-11-15T03:00:30;6.20;86.50
13992;DHT22;7070;53.586;9.692;2022-11-15T03:03:26;6.10;86.50
13992;DHT22;7070;53.586;9.692;2022-11-15T03:06:02;6.10;86.90
13992;DHT22;7070;53.586;9.692;2022-11-15T03:08:35;6.10;86.80
13992;DHT22;7070;53.586;9.692;2022-11-15T03:11:09;6.00;86.90
13992;DHT22;7070;53.586;9.692;2022-11-15T03:13:42;6.00;86.90
13992;DHT22;7070;53.586;9.692;2022-11-15T03:16:16;6.00;87.00
13992;DHT22;7070;53.586;9.692;2022-11-15T03:18:51;6.00;87.00
13992;DHT22;7070;53.586;9.692;2022-11-15T03:21:20;6.00;87.10
13992;DHT22;7070;53.586;9.692;2022-11-15T03:23:49;6.00;87.00
13992;DHT22;7070;53.586;9.692;2022-11-15T03:26:18;6.00;87.00
13992;DHT22;7070;53.586;9.692;2022-11-15T03:28:50;6.00;87.20
13992;DHT22;7070;53.586;9.692;2022-11-15T03:31:19;6.00;87.30
13992;DHT22;7070;53.586;9.692;2022-11-15T03:34:08;6.10;87.40
13992;DHT22;7070;53.586;9.692;2022-11-15T03:36:37;6.20;87.60
13992;DHT22;7070;53.586;9.692;2022-11-15T03:39:06;6.10;87.50
13992;DHT22;7070;53.586;9.692;2022-11-15T03:41:39;6.20;87.70
13992;DHT22;7070;53.586;9.692;2022-11-15T03:44:14;6.20;87.70
13992;DHT22;7070;53.586;9.692;2022-11-15T03:46:47;6.20;87.70
13992;DHT22;7070;53.586;9.692;2022-11-15T03:49:24;6.30;88.70
13992;DHT22;7070;53.586;9.692;2022-11-15T03:51:52;6.30;87.80
13992;DHT22;7070;53.586;9.692;2022-11-15T03:54:19;6.40;87.80
13992;DHT22;7070;53.586;9.692;2022-11-15T03:56:46;6.40;87.70
13992;DHT22;7070;53.586;9.692;2022-11-15T03:59:13;6.50;87.70
13992;DHT22;7070;53.586;9.692;2022-11-15T04:01:40;6.40;87.70
13992;DHT22;7070;53.586;9.692;2022-11-15T04:04:06;6.50;88.00
13992;DHT22;7070;53.586;9.692;2022-11-15T04:06:35;6.50;88.00
13992;DHT22;7070;53.586;9.692;2022-11-15T04:09:02;6.60;88.40
13992;DHT22;7070;53.586;9.692;2022-11-15T04:11:29;6.70;88.60
13992;DHT22;7070;53.586;9.692;2022-11-15T04:13:56;6.70;88.80
13992;DHT22;7070;53.586;9.692;2022-11-15T04:16:22;6.80;89.80
13992;DHT22;7070;53.586;9.692;2022-11-15T04:18:49;6.90;89.30
13992;DHT22;7070;53.586;9.692;2022-11-15T04:21:37;7.10;89.40
13992;DHT22;7070;53.586;9.692;2022-11-15T04:24:22;7.10;89.40
13992;DHT22;7070;53.586;9.692;2022-11-15T04:26:49;7.40;89.70
13992;DHT22;7070;53.586;9.692;2022-11-15T04:29:15;7.50;90.20
13992;DHT22;7070;53.586;9.692;2022-11-15T04:32:00;7.50;89.60
13992;DHT22;7070;53.586;9.692;2022-11-15T04:34:27;7.70;89.70
13992;DHT22;7070;53.586;9.692;2022-11-15T04:36:55;7.70;89.60
13992;DHT22;7070;53.586;9.692;2022-11-15T04:39:42;7.90;89.70
13992;DHT22;7070;53.586;9.692;2022-11-15T04:42:09;8.00;89.70
13992;DHT22;7070;53.586;9.692;2022-11-15T04:44:36;8.10;89.80
13992;DHT22;7070;53.586;9.692;2022-11-15T04:47:03;8.20;89.70
13992;DHT22;7070;53.586;9.692;2022-11-15T04:49:30;8.30;89.80
13992;DHT22;7070;53.586;9.692;2022-11-15T04:51:58;8.30;89.80
13992;DHT22;7070;53.586;9.692;2022-11-15T04:54:25;8.40;89.70
13992;DHT22;7070;53.586;9.692;2022-11-15T04:56:52;8.50;89.80
13992;DHT22;7070;53.586;9.692;2022-11-15T04:59:19;8.60;89.80
13992;DHT22;7070;53.586;9.692;2022-11-15T05:01:46;8.60;89.70
13992;DHT22;7070;53.586;9.692;2022-11-15T05:04:12;8.80;89.80
13992;DHT22;7070;53.586;9.692;2022-11-15T05:06:44;8.80;89.80
13992;DHT22;7070;53.586;9.692;2022-11-15T05:09:12;8.90;89.70
13992;DHT22;7070;53.586;9.692;2022-11-15T05:11:39;8.90;89.60
13992;DHT22;7070;53.586;9.692;2022-11-15T05:14:06;9.00;89.70
13992;DHT22;7070;53.586;9.692;2022-11-15T05:16:33;9.10;89.70
13992;DHT22;7070;53.586;9.692;2022-11-15T05:19:00;9.20;89.70
13992;DHT22;7070;53.586;9.692;2022-11-15T05:21:27;9.20;89.60
13992;DHT22;7070;53.586;9.692;2022-11-15T05:23:54;9.30;89.60
13992;DHT22;7070;53.586;9.692;2022-11-15T05:26:22;9.30;89.60
13992;DHT22;7070;53.586;9.692;2022-11-15T05:28:52;9.30;89.40
13992;DHT22;7070;53.586;9.692;2022-11-15T05:31:20;9.40;89.30
13992;DHT22;7070;53.586;9.692;2022-11-15T05:33:49;9.40;89.40
13992;DHT22;7070;53.586;9.692;2022-11-15T05:36:20;9.50;89.30
13992;DHT22;7070;53.586;9.692;2022-11-15T05:38:48;9.50;89.10
13992;DHT22;7070;53.586;9.692;2022-11-15T05:41:17;9.40;89.00
13992;DHT22;7070;53.586;9.692;2022-11-15T05:43:46;9.50;89.00
13992;DHT22;7070;53.586;9.692;2022-11-15T05:46:14;9.60;89.00
13992;DHT22;7070;53.586;9.692;2022-11-15T05:48:44;9.60;88.80
13992;DHT22;7070;53.586;9.692;2022-11-15T05:51:12;9.50;88.60
13992;DHT22;7070;53.586;9.692;2022-11-15T05:53:39;9.60;88.70
13992;DHT22;7070;53.586;9.692;2022-11-15T05:56:09;9.60;88.60
13992;DHT22;7070;53.586;9.692;2022-11-15T05:58:37;9.60;88.40
13992;DHT22;7070;53.586;9.692;2022-11-15T06:01:05;9.60;88.30
13992;DHT22;7070;53.586;9.692;2022-11-15T06:03:32;9.60;88.30
13992;DHT22;7070;53.586;9.692;2022-11-15T06:05:59;9.60;88.20
13992;DHT22;7070;53.586;9.692;2022-11-15T06:08:26;9.60;88.10
13992;DHT22;7070;53.586;9.692;2022-11-15T06:10:53;9.60;88.10
13992;DHT22;7070;53.586;9.692;2022-11-15T06:13:20;9.70;88.10
13992;DHT22;7070;53.586;9.692;2022-11-15T06:15:47;9.60;88.60
13992;DHT22;7070;53.586;9.692;2022-11-15T06:18:15;9.60;87.80
13992;DHT22;7070;53.586;9.692;2022-11-15T06:20:42;9.70;87.90
13992;DHT22;7070;53.586;9.692;2022-11-15T06:23:09;9.70;87.80
13992;DHT22;7070;53.586;9.692;2022-11-15T06:25:36;9.70;87.80
13992;DHT22;7070;53.586;9.692;2022-11-15T06:28:03;9.70;87.80
13992;DHT22;7070;53.586;9.692;2022-11-15T06:30:30;9.70;87.90
13992;DHT22;7070;53.586;9.692;2022-11-15T06:33:00;9.70;87.90
13992;DHT22;7070;53.586;9.692;2022-11-15T06:35:30;9.80;87.80
13992;DHT22;7070;53.586;9.692;2022-11-15T06:38:02;9.80;87.90
13992;DHT22;7070;53.586;9.692;2022-11-15T06:40:29;9.80;87.80
13992;DHT22;7070;53.586;9.692;2022-11-15T06:42:58;9.80;87.70
13992;DHT22;7070;53.586;9.692;2022-11-15T06:45:25;9.90;87.80
13992;DHT22;7070;53.586;9.692;2022-11-15T06:47:52;9.90;87.70
13992;DHT22;7070;53.586;9.692;2022-11-15T06:50:19;10.00;86.60
13992;DHT22;7070;53.586;9.692;2022-11-15T06:52:47;10.00;86.60
13992;DHT22;7070;53.586;9.692;2022-11-15T06:55:14;10.00;86.50
13992;DHT22;7070;53.586;9.692;2022-11-15T06:57:47;10.10;86.50
13992;DHT22;7070;53.586;9.692;2022-11-15T07:00:15;10.10;87.10
13992;DHT22;7070;53.586;9.692;2022-11-15T07:02:42;10.10;86.40
13992;DHT22;7070;53.586;9.692;2022-11-15T07:05:09;10.10;86.40
13992;DHT22;7070;53.586;9.692;2022-11-15T07:07:36;10.20;86.40
13992;DHT22;7070;53.586;9.692;2022-11-15T07:10:06;10.20;86.30
13992;DHT22;7070;53.586;9.692;2022-11-15T07:12:33;10.30;86.30
13992;DHT22;7070;53.586;9.692;2022-11-15T07:15:00;10.30;86.20
13992;DHT22;7070;53.586;9.692;2022-11-15T07:17:26;10.30;86.10
13992;DHT22;7070;53.586;9.692;2022-11-15T07:19:53;10.30;86.20
13992;DHT22;7070;53.586;9.692;2022-11-15T07:22:20;10.30;86.10
13992;DHT22;7070;53.586;9.692;2022-11-15T07:24:47;10.40;86.10
13992;DHT22;7070;53.586;9.692;2022-11-15T07:27:15;10.00;85.60
13992;DHT22;7070;53.586;9.692;2022-11-15T07:29:42;10.40;86.00
13992;DHT22;7070;53.586;9.692;2022-11-15T07:32:09;10.40;85.90
13992;DHT22;7070;53.586;9.692;2022-11-15T07:34:36;10.40;85.90
13992;DHT22;7070;53.586;9.692;2022-11-15T07:37:03;10.50;86.00
13992;DHT22;7070;53.586;9.692;2022-11-15T07:39:29;10.40;85.70
13992;DHT22;7070;53.586;9.692;2022-11-15T07:41:56;10.50;85.80
13992;DHT22;7070;53.586;9.692;2022-11-15T07:44:38;10.50;85.80
13992;DHT22;7070;53.586;9.692;2022-11-15T07:47:05;10.50;85.70
13992;DHT22;7070;53.586;9.692;2022-11-15T07:49:32;10.60;85.70
13992;DHT22;7070;53.586;9.692;2022-11-15T07:51:59;10.60;85.70
13992;DHT22;7070;53.586;9.692;2022-11-15T07:54:26;10.60;85.60
13992;DHT22;7070;53.586;9.692;2022-11-15T07:56:53;10.60;85.50
13992;DHT22;7070;53.586;9.692;2022-11-15T07:59:20;10.70;85.60
13992;DHT22;7070;53.586;9.692;2022-11-15T08:01:48;10.70;85.60
13992;DHT22;7070;53.586;9.692;2022-11-15T08:04:15;10.80;85.50
13992;DHT22;7070;53.586;9.692;2022-11-15T08:06:41;10.80;85.50
13992;DHT22;7070;53.586;9.692;2022-11-15T08:09:08;10.80;85.50
13992;DHT22;7070;53.586;9.692;2022-11-15T08:11:35;10.90;85.50
13992;DHT22;7070;53.586;9.692;2022-11-15T08:14:02;10.90;85.50
13992;DHT22;7070;53.586;9.692;2022-11-15T08:16:29;10.90;85.50
13992;DHT22;7070;53.586;9.692;2022-11-15T08:18:57;10.30;84.80
13992;DHT22;7070;53.586;9.692;2022-11-15T08:21:24;11.00;85.40
13992;DHT22;7070;53.586;9.692;2022-11-15T08:23:51;11.00;85.30
13992;DHT22;7070;53.586;9.692;2022-11-15T08:26:18;11.10;85.40
13992;DHT22;7070;53.586;9.692;2022-11-15T08:28:45;11.10;85.30
13992;DHT22;7070;53.586;9.692;2022-11-15T08:31:14;11.20;85.40
13992;DHT22;7070;53.586;9.692;2022-11-15T08:33:42;11.20;85.30
13992;DHT22;7070;53.586;9.692;2022-11-15T08:36:14;11.30;85.30
13992;DHT22;7070;53.586;9.692;2022-11-15T08:38:41;11.30;85.30
13992;DHT22;7070;53.586;9.692;2022-11-15T08:41:13;11.30;85.30
13992;DHT22;7070;53.586;9.692;2022-11-15T08:43:41;11.40;85.30
13992;DHT22;7070;53.586;9.692;2022-11-15T08:46:10;11.50;85.30
13992;DHT22;7070;53.586;9.692;2022-11-15T08:48:38;11.50;85.20
13992;DHT22;7070;53.586;9.692;2022-11-15T08:51:05;11.60;85.10
13992;DHT22;7070;53.586;9.692;2022-11-15T08:53:33;11.60;85.10
13992;DHT22;7070;53.586;9.692;2022-11-15T08:56:01;11.70;85.00
13992;DHT22;7070;53.586;9.692;2022-11-15T08:58:28;11.70;84.80
13992;DHT22;7070;53.586;9.692;2022-11-15T09:00:55;11.80;84.70
13992;DHT22;7070;53.586;9.692;2022-11-15T09:03:22;11.80;84.60
13992;DHT22;7070;53.586;9.692;2022-11-15T09:05:48;11.80;84.40
13992;DHT22;7070;53.586;9.692;2022-11-15T09:08:20;11.90;84.30
13992;DHT22;7070;53.586;9.692;2022-11-15T09:10:48;11.90;84.20
13992;DHT22;7070;53.586;9.692;2022-11-15T09:13:15;11.90;84.20
13992;DHT22;7070;53.586;9.692;2022-11-15T09:15:42;11.90;84.10
13992;DHT22;7070;53.586;9.692;2022-11-15T09:18:09;11.90;84.10
13992;DHT22;7070;53.586;9.692;2022-11-15T09:20:36;11.90;84.20
13992;DHT22;7070;53.586;9.692;2022-11-15T09:23:03;11.90;84.20
13992;DHT22;7070;53.586;9.692;2022-11-15T09:25:31;12.00;84.30
13992;DHT22;7070;53.586;9.692;2022-11-15T09:28:00;12.00;84.30
13992;DHT22;7070;53.586;9.692;2022-11-15T09:30:26;12.10;84.40
13992;DHT22;7070;53.586;9.692;2022-11-15T09:32:53;12.20;84.40
13992;DHT22;7070;53.586;9.692;2022-11-15T09:35:20;12.30;84.30
13992;DHT22;7070;53.586;9.692;2022-11-15T09:37:47;12.40;84.30
13992;DHT22;7070;53.586;9.692;2022-11-15T09:40:14;12.40;84.20
13992;DHT22;7070;53.586;9.692;2022-11-15T09:42:57;12.50;84.20
13992;DHT22;7070;53.586;9.692;2022-11-15T09:45:32;12.60;84.30
13992;DHT22;7070;53.586;9.692;2022-11-15T09:48:17;12.70;84.40
13992;DHT22;7070;53.586;9.692;2022-11-15T09:50:50;12.90;84.40
13992;DHT22;7070;53.586;9.692;2022-11-15T09:53:24;13.00;84.20
13992;DHT22;7070;53.586;9.692;2022-11-15T09:55:58;13.10;84.20
13992;DHT22;7070;53.586;9.692;2022-11-15T09:58:33;13.10;83.90
13992;DHT22;7070;53.586;9.692;2022-11-15T10:01:08;13.20;83.80
13992;DHT22;7070;53.586;9.692;2022-11-15T10:03:40;13.20;83.50
13992;DHT22;7070;53.586;9.692;2022-11-15T10:06:15;13.30;83.40
13992;DHT22;7070;53.586;9.692;2022-11-15T10:08:54;13.30;83.20
13992;DHT22;7070;53.586;9.692;2022-11-15T10:11:25;13.30;83.00
13992;DHT22;7070;53.586;9.692;2022-11-15T10:13:57;13.30;83.00
13992;DHT22;7070;53.586;9.692;2022-11-15T10:19:30;13.20;82.70
13992;DHT22;7070;53.586;9.692;2022-11-15T10:22:11;13.20;82.60
13992;DHT22;7070;53.586;9.692;2022-11-15T10:24:43;13.10;82.60
13992;DHT22;7070;53.586;9.692;2022-11-15T10:27:15;13.10;82.50
13992;DHT22;7070;53.586;9.692;2022-11-15T10:29:44;13.10;82.50
13992;DHT22;7070;53.586;9.692;2022-11-15T10:32:13;13.10;82.50
13992;DHT22;7070;53.586;9.692;2022-11-15T10:34:41;13.00;82.40
13992;DHT22;7070;53.586;9.692;2022-11-15T10:37:08;13.00;82.40
13992;DHT22;7070;53.586;9.692;2022-11-15T10:39:35;13.00;82.40
13992;DHT22;7070;53.586;9.692;2022-11-15T10:42:16;13.00;82.50
13992;DHT22;7070;53.586;9.692;2022-11-15T10:44:44;13.00;82.50
13992;DHT22;7070;53.586;9.692;2022-11-15T10:47:27;13.10;82.50
13992;DHT22;7070;53.586;9.692;2022-11-15T10:50:02;13.10;82.60
13992;DHT22;7070;53.586;9.692;2022-11-15T10:52:30;13.10;82.60
13992;DHT22;7070;53.586;9.692;2022-11-15T10:55:01;13.10;82.50
13992;DHT22;7070;53.586;9.692;2022-11-15T10:57:31;13.10;83.20
13992;DHT22;7070;53.586;9.692;2022-11-15T11:00:03;13.20;82.40
13992;DHT22;7070;53.586;9.692;2022-11-15T11:02:34;13.20;82.40
13992;DHT22;7070;53.586;9.692;2022-11-15T11:05:03;13.20;82.30
13992;DHT22;7070;53.586;9.692;2022-11-15T11:07:33;13.30;82.30
13992;DHT22;7070;53.586;9.692;2022-11-15T11:10:18;13.30;82.20
13992;DHT22;7070;53.586;9.692;2022-11-15T11:12:45;13.30;82.20
13992;DHT22;7070;53.586;9.692;2022-11-15T11:15:14;13.30;81.90
13992;DHT22;7070;53.586;9.692;2022-11-15T11:17:52;13.40;82.00
13992;DHT22;7070;53.586;9.692;2022-11-15T11:20:25;13.30;81.90
13992;DHT22;7070;53.586;9.692;2022-11-15T11:23:02;13.40;82.00
13992;DHT22;7070;53.586;9.692;2022-11-15T11:25:34;13.40;82.10
13992;DHT22;7070;53.586;9.692;2022-11-15T11:28:20;13.40;82.10
13992;DHT22;7070;53.586;9.692;2022-11-15T11:30:58;13.50;82.40
13992;DHT22;7070;53.586;9.692;2022-11-15T11:33:31;13.50;82.30
13992;DHT22;7070;53.586;9.692;2022-11-15T11:36:08;13.60;82.30
13992;DHT22;7070;53.586;9.692;2022-11-15T11:38:46;13.70;82.40
13992;DHT22;7070;53.586;9.692;2022-11-15T11:41:27;13.80;82.30
13992;DHT22;7070;53.586;9.692;2022-11-15T11:44:05;13.80;82.20
13992;DHT22;7070;53.586;9.692;2022-11-15T11:46:48;13.90;82.10
13992;DHT22;7070;53.586;9.692;2022-11-15T11:49:21;13.90;82.10
13992;DHT22;7070;53.586;9.692;2022-11-15T11:51:52;14.00;81.90
13992;DHT22;7070;53.586;9.692;2022-11-15T11:54:24;14.00;81.90
13992;DHT22;7070;53.586;9.692;2022-11-15T11:56:53;14.00;81.90
13992;DHT22;7070;53.586;9.692;2022-11-15T11:59:32;14.10;82.00
13992;DHT22;7070;53.586;9.692;2022-11-15T12:02:11;14.10;82.00
13992;DHT22;7070;53.586;9.692;2022-11-15T12:04:44;14.10;82.00
13992;DHT22;7070;53.586;9.692;2022-11-15T12:07:15;14.20;81.60
13992;DHT22;7070;53.586;9.692;2022-11-15T12:09:48;14.20;81.20
13992;DHT22;7070;53.586;9.692;2022-11-15T12:12:21;14.10;81.00
13992;DHT22;7070;53.586;9.692;2022-11-15T12:14:51;14.10;81.00
13992;DHT22;7070;53.586;9.692;2022-11-15T12:17:23;14.10;81.00
13992;DHT22;7070;53.586;9.692;2022-11-15T12:19:53;14.00;80.90
13992;DHT22;7070;53.586;9.692;2022-11-15T12:22:26;14.00;80.80
13992;DHT22;7070;53.586;9.692;2022-11-15T12:24:57;13.90;80.70
13992;DHT22;7070;53.586;9.692;2022-11-15T12:27:32;13.90;80.80
13992;DHT22;7070;53.586;9.692;2022-11-15T12:30:03;13.80;80.70
13992;DHT22;7070;53.586;9.692;2022-11-15T12:32:33;13.70;80.70
13992;DHT22;7070;53.586;9.692;2022-11-15T12:35:03;13.70;80.80
13992;DHT22;7070;53.586;9.692;2022-11-15T12:37:53;13.70;80.90
13992;DHT22;7070;53.586;9.692;2022-11-15T12:40:31;13.60;81.00
13992;DHT22;7070;53.586;9.692;2022-11-15T12:46:03;13.50;81.40
13992;DHT22;7070;53.586;9.692;2022-11-15T12:48:50;13.50;81.40
13992;DHT22;7070;53.586;9.692;2022-11-15T12:51:20;13.40;81.40
13992;DHT22;7070;53.586;9.692;2022-11-15T12:53:47;13.50;81.60
13992;DHT22;7070;53.586;9.692;2022-11-15T12:56:22;13.50;81.50
13992;DHT22;7070;53.586;9.692;2022-11-15T12:58:52;13.50;81.50
13992;DHT22;7070;53.586;9.692;2022-11-15T13:01:56;13.50;81.50
13992;DHT22;7070;53.586;9.692;2022-11-15T13:04:28;13.50;81.70
13992;DHT22;7070;53.586;9.692;2022-11-15T13:06:58;13.40;81.60
13992;DHT22;7070;53.586;9.692;2022-11-15T13:09:50;13.50;81.60
13992;DHT22;7070;53.586;9.692;2022-11-15T13:15:35;13.40;81.70
13992;DHT22;7070;53.586;9.692;2022-11-15T13:18:31;13.40;81.70
13992;DHT22;7070;53.586;9.692;2022-11-15T13:20:58;13.40;81.90
13992;DHT22;7070;53.586;9.692;2022-11-15T13:23:26;13.50;81.80
13992;DHT22;7070;53.586;9.692;2022-11-15T13:26:12;13.40;81.80
13992;DHT22;7070;53.586;9.692;2022-11-15T13:28:43;13.50;82.00
13992;DHT22;7070;53.586;9.692;2022-11-15T13:31:29;13.50;82.00
13992;DHT22;7070;53.586;9.692;2022-11-15T13:33:59;13.50;82.00
13992;DHT22;7070;53.586;9.692;2022-11-15T13:36:29;13.60;82.10
13992;DHT22;7070;53.586;9.692;2022-11-15T13:39:00;13.60;82.10
13992;DHT22;7070;53.586;9.692;2022-11-15T13:41:28;13.60;82.00
13992;DHT22;7070;53.586;9.692;2022-11-15T13:43:56;13.70;82.00
13992;DHT22;7070;53.586;9.692;2022-11-15T13:46:25;13.70;82.10
13992;DHT22;7070;53.586;9.692;2022-11-15T13:48:54;13.80;82.20
13992;DHT22;7070;53.586;9.692;2022-11-15T13:51:26;13.80;82.10
13992;DHT22;7070;53.586;9.692;2022-11-15T13:53:56;13.80;82.10
13992;DHT22;7070;53.586;9.692;2022-11-15T13:56:27;13.80;82.00
13992;DHT22;7070;53.586;9.692;2022-11-15T13:58:54;13.90;82.10
13992;DHT22;7070;53.586;9.692;2022-11-15T14:01:21;13.80;81.20
13992;DHT22;7070;53.586;9.692;2022-11-15T14:03:56;13.90;81.90
13992;DHT22;7070;53.586;9.692;2022-11-15T14:06:25;13.90;82.00
13992;DHT22;7070;53.586;9.692;2022-11-15T14:09:29;13.90;82.10
13992;DHT22;7070;53.586;9.692;2022-11-15T14:12:00;13.90;82.10
13992;DHT22;7070;53.586;9.692;2022-11-15T14:14:29;13.90;82.00
13992;DHT22;7070;53.586;9.692;2022-11-15T14:16:57;13.90;81.80
13992;DHT22;7070;53.586;9.692;2022-11-15T14:19:36;13.80;81.70
13992;DHT22;7070;53.586;9.692;2022-11-15T14:22:12;13.80;81.60
13992;DHT22;7070;53.586;9.692;2022-11-15T14:24:41;13.70;81.50
13992;DHT22;7070;53.586;9.692;2022-11-15T14:27:25;13.70;81.70
13992;DHT22;7070;53.586;9.692;2022-11-15T14:29:52;13.60;81.40
13992;DHT22;7070;53.586;9.692;2022-11-15T14:32:21;13.60;81.30
13992;DHT22;7070;53.586;9.692;2022-11-15T14:34:53;13.50;81.30
13992;DHT22;7070;53.586;9.692;2022-11-15T14:37:22;13.40;81.30
13992;DHT22;7070;53.586;9.692;2022-11-15T14:39:50;13.30;81.30
13992;DHT22;7070;53.586;9.692;2022-11-15T14:42:17;13.30;81.50
13992;DHT22;7070;53.586;9.692;2022-11-15T14:44:46;13.20;81.40
13992;DHT22;7070;53.586;9.692;2022-11-15T14:47:13;13.10;81.50
13992;DHT22;7070;53.586;9.692;2022-11-15T14:49:40;13.00;81.60
13992;DHT22;7070;53.586;9.692;2022-11-15T14:52:25;13.00;81.80
13992;DHT22;7070;53.586;9.692;2022-11-15T14:54:53;12.90;82.10
13992;DHT22;7070;53.586;9.692;2022-11-15T14:57:20;12.90;82.20
13992;DHT22;7070;53.586;9.692;2022-11-15T14:59:48;12.90;82.30
13992;DHT22;7070;53.586;9.692;2022-11-15T15:02:18;12.80;82.30
13992;DHT22;7070;53.586;9.692;2022-11-15T15:04:45;12.80;82.40
13992;DHT22;7070;53.586;9.692;2022-11-15T15:07:12;12.80;82.50
13992;DHT22;7070;53.586;9.692;2022-11-15T15:09:40;12.70;82.50
13992;DHT22;7070;53.586;9.692;2022-11-15T15:12:14;12.70;82.60
13992;DHT22;7070;53.586;9.692;2022-11-15T15:14:41;12.70;82.90
13992;DHT22;7070;53.586;9.692;2022-11-15T15:17:09;12.70;83.20
13992;DHT22;7070;53.586;9.692;2022-11-15T15:19:37;12.70;83.30
13992;DHT22;7070;53.586;9.692;2022-11-15T15:22:04;12.80;83.50
13992;DHT22;7070;53.586;9.692;2022-11-15T15:24:31;12.80;83.60
13992;DHT22;7070;53.586;9.692;2022-11-15T15:26:58;12.80;83.50
13992;DHT22;7070;53.586;9.692;2022-11-15T15:29:25;12.80;83.50
13992;DHT22;7070;53.586;9.692;2022-11-15T15:31:52;12.80;83.20
13992;DHT22;7070;53.586;9.692;2022-11-15T15:34:20;12.80;82.80
13992;DHT22;7070;53.586;9.692;2022-11-15T15:36:47;12.80;82.60
13992;DHT22;7070;53.586;9.692;2022-11-15T15:39:14;12.70;83.10
13992;DHT22;7070;53.586;9.692;2022-11-15T15:41:41;12.60;82.20
13992;DHT22;7070;53.586;9.692;2022-11-15T15:44:09;12.50;82.10
13992;DHT22;7070;53.586;9.692;2022-11-15T15:46:36;12.40;82.10
13992;DHT22;7070;53.586;9.692;2022-11-15T15:49:03;12.30;82.10
13992;DHT22;7070;53.586;9.692;2022-11-15T15:51:31;12.20;82.10
13992;DHT22;7070;53.586;9.692;2022-11-15T15:53:58;12.10;82.20
13992;DHT22;7070;53.586;9.692;2022-11-15T15:56:25;12.00;82.30
13992;DHT22;7070;53.586;9.692;2022-11-15T15:58:53;11.90;82.40
13992;DHT22;7070;53.586;9.692;2022-11-15T16:01:21;11.80;82.50
13992;DHT22;7070;53.586;9.692;2022-11-15T16:03:47;11.70;82.60
13992;DHT22;7070;53.586;9.692;2022-11-15T16:06:35;11.60;82.70
13992;DHT22;7070;53.586;9.692;2022-11-15T16:09:03;11.50;82.70
13992;DHT22;7070;53.586;9.692;2022-11-15T16:11:30;11.50;83.10
13992;DHT22;7070;53.586;9.692;2022-11-15T16:13:57;11.40;83.40
13992;DHT22;7070;53.586;9.692;2022-11-15T16:16:24;11.40;83.70
13992;DHT22;7070;53.586;9.692;2022-11-15T16:18:51;11.40;84.00
13992;DHT22;7070;53.586;9.692;2022-11-15T16:21:19;11.40;84.20
13992;DHT22;7070;53.586;9.692;2022-11-15T16:23:47;11.40;84.40
13992;DHT22;7070;53.586;9.692;2022-11-15T16:26:20;11.40;84.60